createdAt,value
2023-03-03T00:01:45.307Z,55.00
2023-03-03T00:04:12.376Z,54.40
2023-03-03T00:06:39.467Z,55.50
2023-03-03T00:09:06.525Z,55.20
2023-03-03T00:11:33.451Z,55.20
2023-03-03T00:14:00.433Z,54.10
2023-03-03T00:16:37.497Z,55.40
2023-03-03T00:19:13.919Z,54.90
2023-03-03T00:21:42.576Z,54.90
2023-03-03T00:24:20.523Z,55.50
2023-03-03T00:26:49.541Z,55.50
2023-03-03T00:29:27.261Z,55.40
2023-03-03T00:31:54.967Z,55.40
2023-03-03T00:34:28.508Z,55.70
2023-03-03T00:36:58.238Z,55.40
2023-03-03T00:39:36.259Z,55.10
2023-03-03T00:42:16.217Z,55.40
2023-03-03T00:44:44.581Z,55.70
2023-03-03T00:47:37.882Z,55.50
2023-03-03T00:50:07.966Z,54.30
2023-03-03T00:52:40.019Z,56.70
2023-03-03T00:55:08.232Z,56.80
2023-03-03T00:57:35.345Z,56.30
2023-03-03T01:00:04.744Z,55.60
2023-03-03T01:02:32.813Z,56.60
2023-03-03T01:05:00.420Z,56.40
2023-03-03T01:07:27.487Z,56.00
2023-03-03T01:09:55.269Z,56.00
2023-03-03T01:12:23.441Z,56.30
2023-03-03T01:14:53.066Z,56.00
2023-03-03T01:17:20.297Z,56.70
2023-03-03T01:19:47.203Z,56.30
2023-03-03T01:22:14.253Z,56.50
2023-03-03T01:24:41.218Z,56.30
2023-03-03T01:27:08.169Z,56.40
2023-03-03T01:29:35.163Z,56.10
2023-03-03T01:32:02.181Z,56.20
2023-03-03T01:34:29.102Z,56.00
2023-03-03T01:36:56.081Z,55.80
2023-03-03T01:39:23.148Z,55.80
2023-03-03T01:41:50.139Z,55.50
2023-03-03T01:44:17.513Z,56.10
2023-03-03T01:46:59.106Z,56.40
2023-03-03T01:49:31.152Z,55.60
2023-03-03T01:52:02.532Z,56.40
2023-03-03T01:54:43.826Z,56.70
2023-03-03T01:57:23.095Z,56.30
2023-03-03T01:59:53.522Z,56.10
2023-03-03T02:02:20.958Z,56.20
2023-03-03T02:04:49.597Z,56.20
2023-03-03T02:07:19.065Z,57.10
2023-03-03T02:10:06.443Z,57.20
2023-03-03T02:12:39.031Z,57.10
2023-03-03T02:15:32.244Z,55.60
2023-03-03T02:18:03.547Z,57.30
2023-03-03T02:20:44.174Z,57.40
2023-03-03T02:23:17.213Z,57.40
2023-03-03T02:25:58.600Z,57.50
2023-03-03T02:28:32.693Z,56.20
2023-03-03T02:31:07.778Z,57.60
2023-03-03T02:33:34.988Z,57.40
2023-03-03T02:36:01.985Z,58.10
2023-03-03T02:38:40.145Z,58.30
2023-03-03T02:41:30.902Z,57.40
2023-03-03T02:44:16.098Z,57.80
2023-03-03T02:46:46.986Z,58.50
2023-03-03T02:49:17.107Z,58.10
2023-03-03T02:51:44.721Z,58.30
2023-03-03T02:54:13.974Z,58.50
2023-03-03T02:56:42.112Z,58.20
2023-03-03T02:59:09.790Z,58.40
2023-03-03T03:01:42.839Z,58.70
2023-03-03T03:04:16.803Z,58.20
2023-03-03T03:06:46.721Z,58.80
2023-03-03T03:09:16.599Z,58.50
2023-03-03T03:11:44.612Z,59.10
2023-03-03T03:14:14.026Z,58.90
2023-03-03T03:16:43.346Z,58.80
2023-03-03T03:19:11.174Z,58.00
2023-03-03T03:21:39.168Z,58.10
2023-03-03T03:24:07.814Z,58.60
2023-03-03T03:26:36.550Z,58.30
2023-03-03T03:29:03.916Z,58.40
2023-03-03T03:31:31.626Z,58.60
2023-03-03T03:34:00.608Z,58.60
2023-03-03T03:36:29.201Z,58.60
2023-03-03T03:38:56.523Z,57.60
2023-03-03T03:41:23.478Z,58.80
2023-03-03T03:43:50.442Z,58.60
2023-03-03T03:46:17.576Z,58.40
2023-03-03T03:48:45.599Z,58.20
2023-03-03T03:51:14.080Z,58.00
2023-03-03T03:53:42.936Z,58.10
2023-03-03T03:56:11.771Z,58.30
2023-03-03T03:58:42.032Z,56.80
2023-03-03T04:01:10.865Z,58.50
2023-03-03T04:03:43.419Z,59.20
2023-03-03T04:06:13.868Z,58.50
2023-03-03T04:08:41.208Z,59.10
2023-03-03T04:11:09.650Z,58.90
2023-03-03T04:13:37.226Z,59.00
2023-03-03T04:16:07.257Z,58.70
2023-03-03T04:18:35.408Z,58.30
2023-03-03T04:21:03.478Z,58.40
2023-03-03T04:23:30.557Z,58.50
2023-03-03T04:25:57.517Z,58.90
2023-03-03T04:28:25.385Z,58.20
2023-03-03T04:30:52.776Z,58.90
2023-03-03T04:33:21.628Z,59.10
2023-03-03T04:35:49.984Z,58.80
2023-03-03T04:38:17.622Z,58.50
2023-03-03T04:40:45.672Z,58.70
2023-03-03T04:43:13.688Z,58.40
2023-03-03T04:45:41.291Z,58.70
2023-03-03T04:48:09.284Z,58.90
2023-03-03T04:50:37.199Z,59.20
2023-03-03T04:53:04.764Z,58.80
2023-03-03T04:55:31.805Z,58.50
2023-03-03T04:57:58.771Z,58.10
2023-03-03T05:00:26.224Z,58.40
2023-03-03T05:02:53.196Z,58.00
2023-03-03T05:05:20.303Z,59.20
2023-03-03T05:07:47.252Z,60.00
2023-03-03T05:10:14.209Z,59.90
2023-03-03T05:12:41.304Z,59.60
2023-03-03T05:15:08.543Z,59.40
2023-03-03T05:17:35.619Z,59.60
2023-03-03T05:20:05.535Z,59.60
2023-03-03T05:22:32.648Z,59.30
2023-03-03T05:24:59.536Z,58.70
2023-03-03T05:27:26.537Z,58.10
2023-03-03T05:29:53.469Z,58.20
2023-03-03T05:32:20.474Z,59.40
2023-03-03T05:34:47.517Z,59.10
2023-03-03T05:37:15.477Z,58.50
2023-03-03T05:39:44.597Z,57.30
2023-03-03T05:42:16.513Z,59.20
2023-03-03T05:44:43.713Z,58.40
2023-03-03T05:47:10.701Z,58.50
2023-03-03T05:49:37.751Z,58.70
2023-03-03T05:52:05.131Z,58.20
2023-03-03T05:54:32.079Z,58.30
2023-03-03T05:56:59.072Z,58.10
2023-03-03T05:59:26.097Z,58.40
2023-03-03T06:01:53.168Z,57.70
2023-03-03T06:04:20.144Z,57.70
2023-03-03T06:06:47.129Z,58.40
2023-03-03T06:09:14.311Z,57.00
2023-03-03T06:11:41.384Z,58.60
2023-03-03T06:14:08.300Z,57.70
2023-03-03T06:16:35.285Z,59.40
2023-03-03T06:19:02.228Z,59.20
2023-03-03T06:21:29.174Z,58.00
2023-03-03T06:23:56.271Z,59.20
2023-03-03T06:26:23.672Z,59.00
2023-03-03T06:28:54.033Z,58.90
2023-03-03T06:31:21.830Z,59.00
2023-03-03T06:33:48.860Z,58.30
2023-03-03T06:36:15.862Z,59.50
2023-03-03T06:38:42.853Z,58.90
2023-03-03T06:41:09.957Z,59.10
2023-03-03T06:43:37.925Z,59.10
2023-03-03T06:46:05.896Z,58.60
2023-03-03T06:48:33.376Z,58.10
2023-03-03T06:51:02.524Z,58.80
2023-03-03T06:53:32.905Z,59.30
2023-03-03T06:56:02.024Z,59.30
2023-03-03T06:58:29.617Z,59.00
2023-03-03T07:01:01.416Z,59.20
2023-03-03T07:03:34.144Z,58.80
2023-03-03T07:06:04.047Z,58.50
2023-03-03T07:08:32.730Z,58.80
2023-03-03T07:11:06.446Z,59.00
2023-03-03T07:13:34.054Z,59.60
2023-03-03T07:16:04.160Z,58.70
2023-03-03T07:18:42.932Z,59.20
2023-03-03T07:21:20.192Z,58.90
2023-03-03T07:23:50.107Z,58.50
2023-03-03T07:26:23.915Z,57.00
2023-03-03T07:29:22.599Z,58.80
2023-03-03T07:31:51.080Z,59.00
2023-03-03T07:34:22.313Z,60.00
2023-03-03T07:36:53.551Z,59.00
2023-03-03T07:39:45.350Z,58.40
2023-03-03T07:42:20.042Z,58.30
2023-03-03T07:44:55.484Z,59.10
2023-03-03T07:47:36.716Z,58.10
2023-03-03T07:50:20.116Z,59.10
2023-03-03T07:53:24.386Z,58.70
2023-03-03T07:55:51.456Z,58.30
2023-03-03T07:58:24.913Z,57.80
2023-03-03T08:01:23.297Z,58.80
2023-03-03T08:03:51.396Z,58.20
2023-03-03T08:06:40.316Z,57.90
2023-03-03T08:09:10.217Z,57.50
2023-03-03T08:11:58.139Z,57.80
2023-03-03T08:14:30.960Z,57.80
2023-03-03T08:17:00.582Z,57.90
2023-03-03T08:19:31.255Z,58.60
2023-03-03T08:22:15.528Z,58.00
2023-03-03T08:24:42.521Z,58.70
2023-03-03T08:27:09.519Z,59.30
2023-03-03T08:29:36.489Z,59.00
2023-03-03T08:32:03.838Z,58.70
2023-03-03T08:34:30.870Z,58.20
2023-03-03T08:36:58.527Z,58.20
2023-03-03T08:39:25.509Z,57.30
2023-03-03T08:41:53.844Z,57.80
2023-03-03T08:44:20.926Z,58.30
2023-03-03T08:46:47.917Z,58.50
2023-03-03T08:49:15.148Z,57.80
2023-03-03T08:51:42.360Z,56.40
2023-03-03T08:54:09.539Z,57.60
2023-03-03T08:56:36.726Z,57.90
2023-03-03T08:59:03.926Z,58.80
2023-03-03T09:01:35.249Z,58.90
2023-03-03T09:04:02.404Z,58.20
2023-03-03T09:06:29.565Z,58.00
2023-03-03T09:08:56.761Z,58.10
2023-03-03T09:11:29.197Z,58.30
2023-03-03T09:14:07.299Z,58.20
2023-03-03T09:16:39.249Z,57.60
2023-03-03T09:19:24.260Z,57.30
2023-03-03T09:21:54.952Z,57.30
2023-03-03T09:24:30.598Z,56.90
2023-03-03T09:27:00.266Z,56.60
2023-03-03T09:29:35.810Z,57.90
2023-03-03T09:32:42.571Z,57.60
2023-03-03T09:35:38.435Z,57.80
2023-03-03T09:38:30.913Z,57.20
2023-03-03T09:41:06.836Z,58.00
2023-03-03T09:43:56.783Z,56.50
2023-03-03T09:46:41.010Z,58.30
2023-03-03T09:49:26.585Z,57.80
2023-03-03T09:52:06.696Z,57.20
2023-03-03T09:54:47.600Z,58.10
2023-03-03T09:57:29.787Z,58.70
2023-03-03T10:00:21.973Z,58.00
2023-03-03T10:03:10.753Z,57.20
2023-03-03T10:05:56.475Z,56.80
2023-03-03T10:08:26.167Z,57.90
2023-03-03T10:11:20.090Z,57.50
2023-03-03T10:14:08.299Z,57.20
2023-03-03T10:16:44.134Z,57.30
2023-03-03T10:19:38.361Z,58.20
2023-03-03T10:22:20.512Z,58.00
2023-03-03T10:24:55.193Z,57.00
2023-03-03T10:27:31.288Z,55.90
2023-03-03T10:30:03.879Z,58.40
2023-03-03T10:32:48.745Z,57.80
2023-03-03T10:35:42.169Z,58.60
2023-03-03T10:38:14.757Z,57.40
2023-03-03T10:41:11.541Z,57.60
2023-03-03T10:44:11.097Z,56.80
2023-03-03T10:46:38.014Z,57.20
2023-03-03T10:49:26.111Z,56.80
2023-03-03T10:52:16.461Z,56.60
2023-03-03T10:54:55.570Z,55.20
2023-03-03T10:57:23.002Z,57.00
2023-03-03T11:00:10.995Z,56.90
2023-03-03T11:03:20.917Z,56.60
2023-03-03T11:06:09.014Z,57.30
2023-03-03T11:08:56.869Z,56.00
2023-03-03T11:11:48.258Z,56.10
2023-03-03T11:14:38.126Z,56.30
2023-03-03T11:17:42.483Z,56.30
2023-03-03T11:20:24.779Z,58.50
2023-03-03T11:22:58.818Z,58.40
2023-03-03T11:26:27.130Z,56.90
2023-03-03T11:29:05.511Z,57.60
2023-03-03T11:31:47.315Z,57.80
2023-03-03T11:34:19.461Z,57.40
2023-03-03T11:36:52.514Z,56.70
2023-03-03T11:39:28.465Z,57.10
2023-03-03T11:42:23.840Z,57.70
2023-03-03T11:44:56.781Z,56.30
2023-03-03T11:47:55.709Z,57.30
2023-03-03T11:50:53.649Z,56.10
2023-03-03T11:53:23.708Z,56.20
2023-03-03T11:55:58.534Z,56.80
2023-03-03T11:58:32.015Z,56.70
2023-03-03T12:01:30.108Z,57.00
2023-03-03T12:04:03.919Z,56.20
2023-03-03T12:06:40.771Z,55.80
2023-03-03T12:09:27.674Z,56.30
2023-03-03T12:12:08.299Z,56.40
2023-03-03T12:15:12.744Z,55.90
2023-03-03T12:17:39.755Z,56.30
2023-03-03T12:20:32.654Z,56.80
2023-03-03T12:23:16.459Z,55.30
2023-03-03T12:25:55.390Z,56.10
2023-03-03T12:28:58.300Z,55.30
2023-03-03T12:31:35.272Z,56.70
2023-03-03T12:34:27.124Z,55.40
2023-03-03T12:37:31.002Z,56.50
2023-03-03T12:40:14.249Z,55.90
2023-03-03T12:42:41.192Z,53.70
2023-03-03T12:45:38.968Z,56.60
2023-03-03T12:48:28.201Z,56.60
2023-03-03T12:51:33.992Z,55.80
2023-03-03T12:54:00.955Z,55.10
2023-03-03T12:56:44.570Z,55.60
2023-03-03T12:59:28.179Z,55.30
2023-03-03T13:02:15.693Z,53.80
2023-03-03T13:04:48.061Z,54.90
2023-03-03T13:07:33.805Z,54.40
2023-03-03T13:10:35.064Z,54.40
2023-03-03T13:13:07.093Z,54.60
2023-03-03T13:15:56.138Z,54.80
2023-03-03T13:18:50.007Z,54.10
2023-03-03T13:21:34.884Z,52.20
2023-03-03T13:24:15.359Z,54.80
2023-03-03T13:27:12.093Z,54.30
2023-03-03T13:29:45.584Z,54.60
2023-03-03T13:32:23.320Z,54.20
2023-03-03T13:35:15.086Z,53.90
2023-03-03T13:37:45.585Z,52.70
2023-03-03T13:40:18.395Z,52.70
2023-03-03T13:42:57.498Z,53.20
2023-03-03T13:45:30.508Z,53.80
2023-03-03T13:48:26.652Z,54.70
2023-03-03T13:50:53.565Z,55.00
2023-03-03T13:53:39.613Z,53.90
2023-03-03T13:56:15.553Z,53.60
2023-03-03T13:58:48.280Z,54.60
2023-03-03T14:01:20.183Z,53.00
2023-03-03T14:04:01.644Z,53.20
2023-03-03T14:06:30.137Z,53.50
2023-03-03T14:09:18.719Z,52.90
2023-03-03T14:12:11.875Z,52.60
2023-03-03T14:14:52.608Z,53.30
2023-03-03T14:17:36.676Z,53.40
2023-03-03T14:20:20.397Z,53.60
2023-03-03T14:23:09.543Z,51.20
2023-03-03T14:25:57.595Z,51.30
2023-03-03T14:28:27.774Z,52.60
2023-03-03T14:30:58.529Z,53.00
2023-03-03T14:33:31.602Z,50.90
2023-03-03T14:35:58.592Z,50.80
2023-03-03T14:38:38.194Z,51.60
2023-03-03T14:41:13.433Z,53.30
2023-03-03T14:43:58.121Z,52.90
2023-03-03T14:46:27.997Z,52.40
2023-03-03T14:48:57.278Z,51.20
2023-03-03T14:51:41.488Z,51.20
2023-03-03T14:54:28.544Z,51.50
2023-03-03T14:57:03.470Z,51.70
2023-03-03T14:59:31.255Z,51.80
2023-03-03T15:02:24.089Z,52.60
2023-03-03T15:05:05.995Z,51.50
2023-03-03T15:07:37.654Z,51.20
2023-03-03T15:10:07.800Z,49.40
2023-03-03T15:12:40.696Z,50.60
2023-03-03T15:15:18.027Z,53.20
2023-03-03T15:17:58.864Z,54.50
2023-03-03T15:20:42.939Z,54.60
2023-03-03T15:23:38.786Z,54.40
2023-03-03T15:26:20.960Z,54.50
2023-03-03T15:29:07.456Z,53.90
2023-03-03T15:31:53.063Z,53.40
2023-03-03T15:34:38.732Z,52.80
2023-03-03T15:37:23.864Z,52.20
2023-03-03T15:40:16.936Z,53.10
2023-03-03T15:43:28.355Z,53.30
2023-03-03T15:46:21.374Z,52.60
2023-03-03T15:49:06.569Z,53.30
2023-03-03T15:52:02.840Z,52.60
2023-03-03T15:54:35.824Z,51.30
2023-03-03T15:57:16.917Z,50.90
2023-03-03T16:00:17.095Z,51.50
2023-03-03T16:02:57.702Z,51.00
2023-03-03T16:05:53.658Z,51.90
2023-03-03T16:08:50.776Z,51.20
2023-03-03T16:11:32.632Z,51.30
2023-03-03T16:14:02.811Z,50.50
2023-03-03T16:16:40.610Z,51.00
2023-03-03T16:19:26.532Z,50.70
2023-03-03T16:22:27.436Z,49.70
2023-03-03T16:25:31.504Z,50.70
2023-03-03T16:28:10.298Z,50.10
2023-03-03T16:30:50.176Z,50.00
2023-03-03T16:33:35.148Z,50.40
2023-03-03T16:36:53.031Z,50.50
2023-03-03T16:39:26.020Z,51.80
2023-03-03T16:42:27.839Z,51.20
2023-03-03T16:45:21.830Z,51.40
2023-03-03T16:47:57.206Z,52.30
2023-03-03T16:51:02.183Z,51.90
2023-03-03T16:53:41.229Z,51.10
2023-03-03T16:56:28.686Z,51.50
2023-03-03T16:58:55.626Z,51.40
2023-03-03T17:01:28.260Z,51.40
2023-03-03T17:03:58.176Z,50.80
2023-03-03T17:06:50.260Z,50.40
2023-03-03T17:09:51.760Z,50.80
2023-03-03T17:12:36.391Z,50.50
2023-03-03T17:15:17.866Z,50.90
2023-03-03T17:17:55.922Z,51.20
2023-03-03T17:20:42.572Z,50.60
2023-03-03T17:23:09.551Z,50.50
2023-03-03T17:25:54.562Z,50.70
2023-03-03T17:29:02.593Z,51.10
2023-03-03T17:31:39.494Z,51.00
2023-03-03T17:34:16.236Z,50.70
2023-03-03T17:36:55.509Z,50.60
2023-03-03T17:39:45.916Z,50.60
2023-03-03T17:42:50.393Z,51.10
2023-03-03T17:45:20.376Z,50.60
2023-03-03T17:47:56.464Z,50.60
2023-03-03T17:51:01.245Z,50.50
2023-03-03T17:53:46.949Z,50.70
2023-03-03T17:56:41.723Z,50.70
2023-03-03T17:59:33.165Z,50.90
2023-03-03T18:02:18.657Z,50.50
2023-03-03T18:05:26.464Z,50.90
2023-03-03T18:07:56.268Z,50.70
2023-03-03T18:11:00.099Z,50.70
2023-03-03T18:13:42.104Z,50.70
2023-03-03T18:16:19.152Z,50.50
2023-03-03T18:18:56.322Z,50.60
2023-03-03T18:21:52.037Z,50.70
2023-03-03T18:24:36.145Z,51.10
2023-03-03T18:27:24.669Z,51.20
2023-03-03T18:30:20.363Z,51.60
2023-03-03T18:33:03.390Z,51.40
2023-03-03T18:35:33.079Z,51.00
2023-03-03T18:38:19.889Z,51.30
2023-03-03T18:41:25.525Z,51.90
2023-03-03T18:44:30.476Z,52.00
2023-03-03T18:46:58.937Z,51.40
2023-03-03T18:49:47.015Z,51.60
2023-03-03T18:52:19.847Z,52.60
2023-03-03T18:55:10.014Z,52.00
2023-03-03T18:57:38.474Z,52.30
2023-03-03T19:00:17.039Z,52.50
2023-03-03T19:02:53.456Z,52.30
2023-03-03T19:05:28.677Z,52.50
2023-03-03T19:08:26.295Z,51.80
2023-03-03T19:10:58.967Z,52.80
2023-03-03T19:13:34.819Z,52.30
2023-03-03T19:16:04.193Z,52.20
2023-03-03T19:18:43.730Z,52.40
2023-03-03T19:21:18.990Z,52.10
2023-03-03T19:23:54.527Z,51.80
2023-03-03T19:26:30.264Z,52.00
2023-03-03T19:29:21.782Z,51.80
2023-03-03T19:32:09.560Z,52.10
2023-03-03T19:34:59.097Z,51.70
2023-03-03T19:37:56.444Z,51.70
2023-03-03T19:40:35.662Z,51.50
2023-03-03T19:43:20.572Z,51.10
2023-03-03T19:46:24.400Z,51.00
2023-03-03T19:49:15.924Z,51.40
2023-03-03T19:52:05.422Z,51.00
2023-03-03T19:54:51.011Z,50.40
2023-03-03T19:57:56.110Z,50.70
2023-03-03T20:00:23.266Z,50.60
2023-03-03T20:03:19.299Z,50.10
2023-03-03T20:06:24.716Z,50.00
2023-03-03T20:09:45.147Z,50.00
2023-03-03T20:13:06.690Z,50.40
2023-03-03T20:16:12.891Z,49.20
2023-03-03T20:18:47.640Z,49.50
2023-03-03T20:21:23.287Z,50.50
2023-03-03T20:24:14.219Z,50.40
2023-03-03T20:26:56.081Z,49.80
2023-03-03T20:30:03.935Z,50.70
2023-03-03T20:32:40.575Z,49.90
2023-03-03T20:35:30.876Z,50.10
2023-03-03T20:38:25.164Z,49.70
2023-03-03T20:41:17.745Z,49.60
2023-03-03T20:44:14.642Z,49.90
2023-03-03T20:46:53.271Z,49.90
2023-03-03T20:49:23.155Z,50.10
2023-03-03T20:52:38.804Z,50.30
2023-03-03T20:55:11.113Z,50.60
2023-03-03T20:57:47.906Z,50.50
2023-03-03T21:00:44.010Z,50.50
2023-03-03T21:03:26.355Z,50.50
2023-03-03T21:06:21.041Z,50.50
2023-03-03T21:08:56.403Z,50.10
2023-03-03T21:11:32.600Z,50.70
2023-03-03T21:14:11.584Z,50.50
2023-03-03T21:16:41.857Z,51.20
2023-03-03T21:19:23.813Z,50.60
2023-03-03T21:21:51.599Z,51.20
2023-03-03T21:24:21.952Z,52.10
2023-03-03T21:26:54.790Z,51.70
2023-03-03T21:29:30.279Z,51.60
2023-03-03T21:32:08.665Z,51.70
2023-03-03T21:34:41.384Z,51.20
2023-03-03T21:37:32.302Z,51.50
2023-03-03T21:40:23.253Z,51.20
2023-03-03T21:42:51.268Z,51.00
2023-03-03T21:45:20.518Z,51.20
2023-03-03T21:47:48.326Z,50.60
2023-03-03T21:50:16.727Z,51.40
2023-03-03T21:52:43.787Z,51.60
2023-03-03T21:55:10.883Z,50.20
2023-03-03T21:57:37.906Z,50.80
2023-03-03T22:00:08.073Z,51.00
2023-03-03T22:02:35.789Z,50.70
2023-03-03T22:05:03.826Z,51.10
2023-03-03T22:07:30.821Z,51.60
2023-03-03T22:09:57.760Z,50.90
2023-03-03T22:12:24.742Z,51.30
2023-03-03T22:14:51.746Z,51.00
2023-03-03T22:17:18.794Z,50.50
2023-03-03T22:19:45.739Z,50.30
2023-03-03T22:22:12.701Z,50.10
2023-03-03T22:24:39.600Z,51.40
2023-03-03T22:27:07.630Z,50.60
2023-03-03T22:29:34.540Z,49.60
2023-03-03T22:32:01.529Z,50.60
2023-03-03T22:34:28.759Z,50.90
2023-03-03T22:36:55.697Z,50.60
2023-03-03T22:39:22.651Z,50.40
2023-03-03T22:41:49.613Z,50.50
2023-03-03T22:44:16.547Z,49.70
2023-03-03T22:46:43.445Z,50.40
2023-03-03T22:49:10.351Z,50.40
2023-03-03T22:51:37.331Z,50.90
2023-03-03T22:54:05.199Z,50.80
2023-03-03T22:56:32.331Z,51.60
2023-03-03T22:58:59.260Z,50.50
2023-03-03T23:01:26.251Z,50.80
2023-03-03T23:03:54.442Z,49.80
2023-03-03T23:06:21.501Z,50.50
2023-03-03T23:08:48.500Z,50.30
2023-03-03T23:11:15.487Z,50.70
2023-03-03T23:13:42.618Z,49.20
2023-03-03T23:16:09.700Z,52.00
2023-03-03T23:18:36.684Z,51.70
2023-03-03T23:21:06.190Z,51.60
2023-03-03T23:23:33.198Z,51.20
2023-03-03T23:26:01.087Z,50.80
2023-03-03T23:28:28.443Z,51.40
2023-03-03T23:30:55.435Z,51.00
2023-03-03T23:33:22.889Z,51.30
2023-03-03T23:35:49.968Z,50.90
2023-03-03T23:38:17.869Z,50.30
2023-03-03T23:40:46.844Z,51.10
2023-03-03T23:43:14.740Z,52.20
2023-03-03T23:45:41.889Z,51.40
2023-03-03T23:48:09.015Z,51.50
2023-03-03T23:50:39.339Z,52.30
2023-03-03T23:53:07.477Z,51.80
2023-03-03T23:55:35.043Z,51.50
2023-03-03T23:58:02.081Z,52.10
